Maybell, Colorado
Current Conditions -  °F | °C
As of 1:53 PM on Friday 19 Dec 2014 (Local Time) from KCAG Reporting Station
Clear Clear  
Wind Chill: 19°   Ceiling: Unl
Heat Index: 28°   Visibility: 10mi
Dew Point: 21°   Wind: 9mph
Humidity: 75%   Direction: 80°E
Pressure: 30.18"   Gusts: NA
Location:  40.52°N, 108.09°W
Report Text: KCAG 192053Z AUTO 08008KT 10SM CLR M02/M06 A3018 RMK AO2 UPE09 SLP260 P0000 60000 T10221061 58013
Loading
Personal Weather Stations






























Interactive Weather Map New forecast layout! Learn more

10-Day Weather Forecast

Advertisements
Track Severe Weather on mobile